Aérodrome :
LOGIN :

S'inscrire | Disclaimer

   EN    FR    IT 

 










Légende :    VFR   VFR Marginal   IFR   IFR Intensif   IFR Très Intensif
Visi : 
Plafond : 
>= 8 km
>= 3000ft
5 à 8 km
1000 à 3000 ft
1500m à 5 km
500 à 1000 ft
800 à 1500m
200 à 500 ft
< 800m
< 200 ft
Symboles :   Orages  Brouillard  Fortes neiges  Fortes précipitations  Vent > 20 kt
SIGMETs :   Divers  Orages  Givrage  Turbulence  Onde Orograph.  Cendres Volcan.






- Altitude de l'aérodrome : 156 ft
- Code IATA : MLN


GEML - Melilla

DERNIER METAR :
  • 251830Z AUTO 07009KT 030V110 9999 FEW011 OVC022 21/18 Q1022

METARs EXPIRÉS :
  • 251800Z AUTO 07010KT 030V110 9999 OVC023 21/18 Q1022
  • 251730Z AUTO 06010KT 030V100 9999 FEW010 OVC023 22/18 Q1022
  • 251700Z AUTO 07011KT 030V110 9999 SCT010 BKN021 OVC027 21/18 Q1022
  • 251630Z AUTO 06009KT 020V110 9999 SCT010 OVC022 22/18 Q1022
  • 251600Z AUTO 07012KT 030V100 9999 FEW009 BKN022 22/18 Q1022

TAF TAF GEML
Valide du 25 à 15h jusqu'au 26 à 15h UTC


251400Z 2515/2615 07008KT 9999 FEW012 TX25/2613Z TN19/2604Z



MET'MAP, la Météo Aéronautique d'un coup d'oeil ! - Copyright ORBIFLY Décembre 2007 - Disclaimer

ORBIFLY MET'MAP TEAM :

Programmation & Développement : Alexandra Zaïnal
Sur une idée originale de : Baudouin d'Aumeries
Assistance à la programmation : Marc-Olivier Méhu
Soutien technique & logistique : Manuel Goepfert

Contact : metmap@orbifly.com




SOURCES & CREDITS :

   NOAA